createdAt,value
2023-05-12T00:01:41.977Z,15.66
2023-05-12T00:04:09.438Z,15.60
2023-05-12T00:06:36.638Z,15.55
2023-05-12T00:09:03.846Z,15.50
2023-05-12T00:11:31.059Z,15.47
2023-05-12T00:13:58.367Z,15.41
2023-05-12T00:16:25.665Z,15.37
2023-05-12T00:18:53.035Z,15.33
2023-05-12T00:21:20.558Z,15.31
2023-05-12T00:23:47.765Z,15.30
2023-05-12T00:26:14.975Z,15.27
2023-05-12T00:28:42.240Z,15.26
2023-05-12T00:31:09.527Z,15.25
2023-05-12T00:33:36.904Z,15.20
2023-05-12T00:36:04.708Z,15.15
2023-05-12T00:38:33.965Z,15.09
2023-05-12T00:41:01.490Z,15.02
2023-05-12T00:43:29.175Z,14.96
2023-05-12T00:45:56.936Z,14.86
2023-05-12T00:48:24.553Z,14.77
2023-05-12T00:50:52.066Z,14.69
2023-05-12T00:53:19.255Z,14.63
2023-05-12T00:55:46.433Z,14.59
2023-05-12T00:58:13.762Z,14.56
2023-05-12T01:00:41.028Z,14.54
2023-05-12T01:03:08.470Z,14.52
2023-05-12T01:06:34.278Z,14.50
2023-05-12T01:09:01.496Z,14.47
2023-05-12T01:11:28.664Z,14.47
2023-05-12T01:13:56.004Z,14.47
2023-05-12T01:16:24.995Z,14.47
2023-05-12T01:18:54.776Z,14.47
2023-05-12T01:21:22.008Z,14.46
2023-05-12T01:23:59.537Z,14.47
2023-05-12T01:26:27.717Z,14.47
2023-05-12T01:28:55.071Z,14.48
2023-05-12T01:31:22.562Z,14.47
2023-05-12T01:33:49.769Z,14.51
2023-05-12T01:36:16.943Z,14.49
2023-05-12T01:38:44.153Z,14.44
2023-05-12T01:41:11.429Z,14.41
2023-05-12T01:43:38.690Z,14.39
2023-05-12T01:46:05.935Z,14.36
2023-05-12T01:48:33.214Z,14.34
2023-05-12T01:51:01.269Z,14.31
2023-05-12T01:53:28.559Z,14.28
2023-05-12T01:55:55.717Z,14.25
2023-05-12T01:58:23.010Z,14.19
2023-05-12T02:00:50.196Z,14.14
2023-05-12T02:03:17.377Z,14.13
2023-05-12T02:05:44.594Z,14.09
2023-05-12T02:08:12.033Z,14.05
2023-05-12T02:10:39.213Z,14.00
2023-05-12T02:13:06.386Z,13.98
2023-05-12T02:15:58.490Z,13.95
2023-05-12T02:18:25.866Z,13.91
2023-05-12T02:20:53.711Z,13.87
2023-05-12T02:23:20.852Z,13.84
2023-05-12T02:25:48.056Z,13.80
2023-05-12T02:28:15.806Z,13.76
2023-05-12T02:30:48.631Z,13.73
2023-05-12T02:33:16.871Z,13.70
2023-05-12T02:35:44.773Z,13.65
2023-05-12T02:38:12.853Z,13.59
2023-05-12T02:40:40.123Z,13.55
2023-05-12T02:43:07.263Z,13.50
2023-05-12T02:45:34.951Z,13.46
2023-05-12T02:48:02.292Z,13.41
2023-05-12T02:50:29.575Z,13.35
2023-05-12T02:52:57.189Z,13.28
2023-05-12T02:55:24.432Z,13.21
2023-05-12T02:57:51.659Z,13.14
2023-05-12T03:00:19.264Z,13.09
2023-05-12T03:02:46.813Z,13.04
2023-05-12T03:05:14.722Z,12.99
2023-05-12T03:07:41.948Z,12.93
2023-05-12T03:10:12.422Z,12.87
2023-05-12T03:12:39.713Z,12.82
2023-05-12T03:15:07.683Z,12.76
2023-05-12T03:17:36.070Z,12.73
2023-05-12T03:21:08.679Z,12.68
2023-05-12T03:23:36.763Z,12.65
2023-05-12T03:26:03.965Z,12.62
2023-05-12T03:28:32.365Z,12.62
2023-05-12T03:30:59.611Z,12.61
2023-05-12T03:33:26.811Z,12.57
2023-05-12T03:35:54.490Z,12.56
2023-05-12T03:38:21.858Z,12.56
2023-05-12T03:40:52.769Z,12.54
2023-05-12T03:43:21.226Z,12.53
2023-05-12T03:45:48.422Z,12.50
2023-05-12T03:48:16.202Z,12.51
2023-05-12T03:50:43.372Z,12.50
2023-05-12T03:53:10.609Z,12.48
2023-05-12T03:55:37.798Z,12.49
2023-05-12T03:58:05.035Z,12.48
2023-05-12T04:00:32.911Z,12.50
2023-05-12T04:03:00.292Z,12.49
2023-05-12T04:05:28.191Z,12.50
2023-05-12T04:07:55.371Z,12.51
2023-05-12T04:10:22.819Z,12.53
2023-05-12T04:12:50.160Z,12.55
2023-05-12T04:15:17.847Z,12.57
2023-05-12T04:17:45.145Z,12.57
2023-05-12T04:20:12.619Z,12.60
2023-05-12T04:22:39.971Z,12.63
2023-05-12T04:25:07.490Z,12.67
2023-05-12T04:27:34.601Z,12.70
2023-05-12T04:30:02.168Z,12.72
2023-05-12T04:32:29.394Z,12.75
2023-05-12T04:34:56.811Z,12.77
2023-05-12T04:37:24.057Z,12.81
2023-05-12T04:39:51.480Z,12.85
2023-05-12T04:42:18.817Z,12.87
2023-05-12T04:44:46.746Z,12.90
2023-05-12T04:47:14.017Z,12.94
2023-05-12T04:49:41.256Z,12.98
2023-05-12T04:52:08.546Z,13.02
2023-05-12T04:54:36.684Z,13.07
2023-05-12T04:57:04.048Z,13.17
2023-05-12T04:59:31.867Z,13.27
2023-05-12T05:01:59.029Z,13.33
2023-05-12T05:04:26.339Z,13.38
2023-05-12T05:06:55.516Z,13.46
2023-05-12T05:09:22.763Z,13.53
2023-05-12T05:11:49.983Z,13.64
2023-05-12T05:14:17.253Z,13.72
2023-05-12T05:16:45.786Z,13.82
2023-05-12T05:19:23.384Z,13.92
2023-05-12T05:21:53.539Z,14.08
2023-05-12T05:24:20.939Z,14.21
2023-05-12T05:26:48.119Z,14.35
2023-05-12T05:29:15.235Z,14.50
2023-05-12T05:31:42.407Z,14.63
2023-05-12T05:34:11.888Z,14.69
2023-05-12T05:36:39.370Z,14.77
2023-05-12T05:39:06.675Z,14.87
2023-05-12T05:41:33.840Z,14.96
2023-05-12T05:44:01.526Z,15.02
2023-05-12T05:46:28.854Z,15.10
2023-05-12T05:48:57.267Z,15.22
2023-05-12T05:51:24.856Z,15.28
2023-05-12T05:53:52.186Z,15.35
2023-05-12T05:56:20.174Z,15.44
2023-05-12T05:58:47.877Z,15.53
2023-05-12T06:01:16.759Z,15.63
2023-05-12T06:03:44.375Z,15.73
2023-05-12T06:06:12.253Z,15.84
2023-05-12T06:08:40.147Z,15.92
2023-05-12T06:11:07.488Z,15.98
2023-05-12T06:13:36.430Z,16.05
2023-05-12T06:16:03.882Z,16.12
2023-05-12T06:18:33.923Z,16.23
2023-05-12T06:21:01.224Z,16.30
2023-05-12T06:23:28.496Z,16.39
2023-05-12T06:25:56.033Z,16.48
2023-05-12T06:28:23.490Z,16.60
2023-05-12T06:30:55.953Z,16.69
2023-05-12T06:33:23.825Z,16.75
2023-05-12T06:35:51.504Z,16.83
2023-05-12T06:38:19.069Z,16.90
2023-05-12T06:40:46.619Z,16.99
2023-05-12T06:43:14.911Z,17.11
2023-05-12T06:45:43.490Z,17.17
2023-05-12T06:48:12.943Z,17.23
2023-05-12T06:50:40.310Z,17.34
2023-05-12T06:53:08.153Z,17.40
2023-05-12T06:55:35.888Z,17.46
2023-05-12T06:58:03.388Z,17.57
2023-05-12T07:00:30.822Z,17.62
2023-05-12T07:02:58.038Z,17.71
2023-05-12T07:05:25.412Z,17.78
2023-05-12T07:07:52.827Z,17.91
2023-05-12T07:10:21.392Z,18.01
2023-05-12T07:12:48.768Z,18.13
2023-05-12T07:15:16.031Z,18.25
2023-05-12T07:17:43.311Z,18.32
2023-05-12T07:20:10.621Z,18.40
2023-05-12T07:22:43.882Z,18.48
2023-05-12T07:25:11.636Z,18.57
2023-05-12T07:27:39.598Z,18.68
2023-05-12T07:30:08.778Z,18.74
2023-05-12T07:32:39.069Z,18.77
2023-05-12T07:35:07.165Z,18.89
2023-05-12T07:37:34.794Z,19.02
2023-05-12T07:40:02.607Z,19.11
2023-05-12T07:42:30.087Z,19.18
2023-05-12T07:44:57.579Z,19.28
2023-05-12T07:47:25.380Z,19.39
2023-05-12T07:49:52.982Z,19.49
2023-05-12T07:52:20.808Z,19.54
2023-05-12T07:54:48.422Z,19.64
2023-05-12T07:57:16.652Z,19.78
2023-05-12T07:59:44.289Z,19.89
2023-05-12T08:02:11.555Z,19.96
2023-05-12T08:04:38.811Z,20.03
2023-05-12T08:07:06.040Z,20.11
2023-05-12T08:09:33.198Z,20.23
2023-05-12T08:12:01.375Z,20.34
2023-05-12T08:14:28.562Z,20.38
2023-05-12T08:16:55.782Z,20.48
2023-05-12T08:19:23.041Z,20.54
2023-05-12T08:21:51.352Z,20.52
2023-05-12T08:24:18.567Z,20.62
2023-05-12T08:26:45.725Z,20.74
2023-05-12T08:29:13.019Z,20.85
2023-05-12T08:31:40.466Z,20.92
2023-05-12T08:34:10.928Z,21.01
2023-05-12T08:36:41.800Z,21.08
2023-05-12T08:39:12.290Z,21.10
2023-05-12T08:41:56.000Z,21.08
2023-05-12T08:44:23.493Z,21.20
2023-05-12T08:46:51.648Z,21.27
2023-05-12T08:49:21.252Z,21.29
2023-05-12T08:51:57.153Z,21.40
2023-05-12T08:54:27.259Z,21.53
2023-05-12T08:59:26.072Z,21.48
2023-05-12T09:01:54.704Z,21.51
2023-05-12T09:04:22.018Z,21.53
2023-05-12T09:06:49.454Z,21.63
2023-05-12T09:09:17.657Z,21.73
2023-05-12T09:11:45.452Z,21.84
2023-05-12T09:14:17.612Z,21.95
2023-05-12T09:16:46.978Z,22.06
2023-05-12T09:19:19.660Z,22.09
2023-05-12T09:21:50.594Z,22.12
2023-05-12T09:24:17.835Z,22.17
2023-05-12T09:26:50.168Z,22.17
2023-05-12T09:29:27.826Z,22.14
2023-05-12T09:31:59.487Z,22.23
2023-05-12T09:37:01.050Z,22.48
2023-05-12T09:39:29.056Z,22.50
2023-05-12T09:41:56.734Z,22.56
2023-05-12T09:44:24.563Z,22.52
2023-05-12T09:46:52.731Z,22.59
2023-05-12T09:49:27.970Z,22.60
2023-05-12T09:51:58.958Z,22.62
2023-05-12T09:54:31.094Z,22.64
2023-05-12T09:57:02.778Z,22.72
2023-05-12T09:59:34.413Z,22.80
2023-05-12T10:02:03.908Z,22.80
2023-05-12T10:08:45.191Z,22.85
2023-05-12T10:11:13.390Z,22.96
2023-05-12T10:13:40.802Z,23.00
2023-05-12T10:16:08.877Z,23.07
2023-05-12T10:18:36.380Z,23.05
2023-05-12T10:21:04.072Z,23.05
2023-05-12T10:23:31.207Z,23.14
2023-05-12T10:26:02.059Z,23.32
2023-05-12T10:28:30.047Z,23.55
2023-05-12T10:30:58.084Z,23.65
2023-05-12T10:33:26.766Z,23.69
2023-05-12T10:35:54.026Z,23.80
2023-05-12T10:38:21.438Z,23.84
2023-05-12T10:41:09.916Z,23.92
2023-05-12T10:43:42.982Z,23.98
2023-05-12T10:46:13.218Z,24.23
2023-05-12T10:48:54.400Z,24.37
2023-05-12T10:51:23.852Z,24.43
2023-05-12T10:54:01.557Z,24.25
2023-05-12T10:56:30.876Z,24.42
2023-05-12T10:59:07.781Z,24.54
2023-05-12T11:01:35.977Z,24.63
2023-05-12T11:04:17.121Z,24.81
2023-05-12T11:06:45.213Z,24.94
2023-05-12T11:09:13.846Z,24.94
2023-05-12T11:11:41.280Z,24.85
2023-05-12T11:14:09.557Z,24.93
2023-05-12T11:16:43.273Z,25.05
2023-05-12T11:19:10.880Z,24.99
2023-05-12T11:21:38.648Z,25.07
2023-05-12T11:24:06.015Z,25.22
2023-05-12T11:26:33.981Z,25.37
2023-05-12T11:29:03.642Z,25.42
2023-05-12T11:31:31.078Z,25.55
2023-05-12T11:34:13.111Z,25.59
2023-05-12T11:36:45.443Z,25.47
2023-05-12T11:39:23.253Z,25.50
2023-05-12T11:41:56.613Z,25.60
2023-05-12T11:44:26.614Z,25.80
2023-05-12T11:47:01.521Z,25.99
2023-05-12T11:49:31.852Z,26.16
2023-05-12T11:52:01.282Z,26.34
2023-05-12T11:54:29.853Z,26.30
2023-05-12T11:56:57.811Z,26.36
2023-05-12T11:59:35.119Z,26.59
2023-05-12T12:02:03.617Z,26.81
2023-05-12T12:04:39.656Z,26.90
2023-05-12T12:07:08.090Z,27.02
2023-05-12T12:09:42.939Z,27.12
2023-05-12T12:12:11.041Z,27.20
2023-05-12T12:14:38.755Z,27.27
2023-05-12T12:17:05.986Z,27.45
2023-05-12T12:19:33.218Z,27.63
2023-05-12T12:22:00.565Z,27.59
2023-05-12T12:24:27.783Z,27.50
2023-05-12T12:26:55.106Z,27.55
2023-05-12T12:29:23.885Z,27.57
2023-05-12T12:31:51.081Z,27.60
2023-05-12T12:34:18.299Z,27.51
2023-05-12T12:36:46.857Z,27.65
2023-05-12T12:39:14.616Z,27.85
2023-05-12T12:41:42.350Z,27.98
2023-05-12T12:44:09.635Z,28.10
2023-05-12T12:46:37.062Z,28.14
2023-05-12T12:49:04.202Z,28.11
2023-05-12T12:51:44.658Z,28.31
2023-05-12T12:54:13.224Z,28.33
2023-05-12T12:56:40.741Z,28.29
2023-05-12T12:59:07.936Z,28.47
2023-05-12T13:01:35.423Z,28.63
2023-05-12T13:04:02.810Z,28.70
2023-05-12T13:06:30.129Z,28.75
2023-05-12T13:08:57.406Z,28.85
2023-05-12T13:11:24.558Z,29.05
2023-05-12T13:13:53.181Z,29.40
2023-05-12T13:16:20.454Z,29.60
2023-05-12T13:18:47.773Z,29.64
2023-05-12T13:21:14.977Z,29.42
2023-05-12T13:23:42.105Z,29.26
2023-05-12T13:26:09.309Z,29.39
2023-05-12T13:28:36.619Z,29.78
2023-05-12T13:31:03.883Z,30.27
2023-05-12T13:33:31.100Z,30.56
2023-05-12T13:35:59.927Z,30.77
2023-05-12T13:38:27.318Z,30.97
2023-05-12T13:49:45.750Z,31.76
2023-05-12T13:52:13.233Z,31.92
2023-05-12T13:54:40.419Z,32.17
2023-05-12T13:57:07.764Z,32.18
2023-05-12T13:59:34.994Z,32.34
2023-05-12T14:02:02.383Z,32.71
2023-05-12T14:04:30.088Z,33.35
2023-05-12T14:06:57.593Z,34.24
2023-05-12T14:09:25.095Z,35.52
2023-05-12T14:11:52.618Z,36.91
2023-05-12T14:14:21.148Z,36.28
2023-05-12T14:16:48.482Z,35.44
2023-05-12T14:19:15.928Z,36.03
2023-05-12T14:21:43.269Z,36.87
2023-05-12T14:24:10.634Z,38.66
2023-05-12T14:26:37.796Z,41.24
2023-05-12T14:29:06.506Z,43.11
2023-05-12T14:31:34.746Z,44.72
2023-05-12T14:34:03.952Z,46.39
2023-05-12T14:36:31.141Z,47.15
2023-05-12T14:38:58.448Z,44.57
2023-05-12T14:41:25.875Z,43.92
2023-05-12T14:43:53.077Z,46.16
2023-05-12T14:46:20.453Z,48.14
2023-05-12T14:48:48.887Z,49.24
2023-05-12T14:51:16.149Z,49.91
2023-05-12T14:53:43.435Z,50.58
2023-05-12T14:56:11.113Z,49.67
2023-05-12T14:58:38.276Z,47.36
2023-05-12T15:01:06.887Z,47.32
2023-05-12T15:03:36.082Z,48.94
2023-05-12T15:06:06.827Z,49.58
2023-05-12T15:08:35.236Z,50.13
2023-05-12T15:11:02.588Z,51.12
2023-05-12T15:13:29.909Z,51.15
2023-05-12T15:15:57.234Z,51.81
2023-05-12T15:18:24.708Z,51.89
2023-05-12T15:20:54.564Z,51.34
2023-05-12T15:23:22.274Z,51.68
2023-05-12T15:25:49.448Z,52.01
2023-05-12T15:28:17.158Z,52.06
2023-05-12T15:30:45.281Z,52.39
2023-05-12T15:33:12.908Z,52.20
2023-05-12T15:35:40.726Z,52.74
2023-05-12T15:38:08.403Z,52.14
2023-05-12T15:40:35.593Z,52.44
2023-05-12T15:43:02.996Z,52.29
2023-05-12T15:45:31.385Z,52.17
2023-05-12T15:47:59.046Z,48.41
2023-05-12T15:50:26.222Z,45.53
2023-05-12T15:52:53.460Z,41.90
2023-05-12T15:55:20.868Z,39.22
2023-05-12T15:57:48.223Z,39.92
2023-05-12T16:00:16.089Z,41.22
2023-05-12T16:02:43.686Z,43.46
2023-05-12T16:05:12.202Z,45.09
2023-05-12T16:07:39.768Z,45.96
2023-05-12T16:10:07.386Z,46.22
2023-05-12T16:12:34.636Z,46.83
2023-05-12T16:15:04.945Z,46.34
2023-05-12T16:17:32.141Z,46.15
2023-05-12T16:19:59.376Z,45.39
2023-05-12T16:22:27.558Z,42.30
2023-05-12T16:24:56.421Z,38.82
2023-05-12T16:27:23.632Z,35.75
2023-05-12T16:29:53.261Z,33.65
2023-05-12T16:32:20.610Z,32.11
2023-05-12T16:34:47.934Z,30.83
2023-05-12T16:37:15.194Z,29.82
2023-05-12T16:39:42.768Z,29.08
2023-05-12T16:42:10.519Z,28.19
2023-05-12T16:44:37.720Z,27.48
2023-05-12T16:47:05.208Z,27.03
2023-05-12T16:49:32.469Z,26.60
2023-05-12T16:51:59.602Z,26.20
2023-05-12T16:54:26.868Z,25.95
2023-05-12T16:56:53.997Z,25.70
2023-05-12T16:59:21.255Z,25.42
2023-05-12T17:01:48.460Z,25.04
2023-05-12T17:04:16.555Z,24.71
2023-05-12T17:06:44.165Z,24.60
2023-05-12T17:09:11.538Z,24.43
2023-05-12T17:11:38.680Z,24.17
2023-05-12T17:14:05.878Z,23.97
2023-05-12T17:16:33.257Z,23.75
2023-05-12T17:21:30.860Z,23.29
2023-05-12T17:23:58.438Z,23.09
2023-05-12T17:26:27.674Z,22.99
2023-05-12T17:28:55.753Z,22.84
2023-05-12T17:31:22.990Z,22.69
2023-05-12T17:33:50.367Z,22.61
2023-05-12T17:36:18.669Z,22.50
2023-05-12T17:38:46.511Z,22.35
2023-05-12T17:41:14.253Z,22.25
2023-05-12T17:43:41.644Z,22.15
2023-05-12T17:46:09.199Z,22.01
2023-05-12T17:48:36.602Z,21.88
2023-05-12T17:51:04.247Z,21.77
2023-05-12T17:53:32.343Z,21.70
2023-05-12T17:56:00.083Z,21.64
2023-05-12T17:58:27.449Z,21.51
2023-05-12T18:00:54.833Z,21.43
2023-05-12T18:03:24.812Z,21.34
2023-05-12T18:05:53.164Z,21.28
2023-05-12T18:08:20.755Z,21.16
2023-05-12T18:10:47.980Z,21.01
2023-05-12T18:13:15.564Z,20.95
2023-05-12T18:15:43.116Z,20.81
2023-05-12T18:18:10.738Z,20.68
2023-05-12T18:20:38.197Z,20.61
2023-05-12T18:23:05.485Z,20.50
2023-05-12T18:25:32.686Z,20.42
2023-05-12T18:27:59.891Z,20.32
2023-05-12T18:30:27.123Z,20.21
2023-05-12T18:32:54.456Z,20.09
2023-05-12T18:35:22.166Z,20.04
2023-05-12T18:37:49.587Z,19.97
2023-05-12T18:40:16.929Z,19.89
2023-05-12T18:42:44.220Z,19.78
2023-05-12T18:45:11.822Z,19.67
2023-05-12T18:47:39.308Z,19.59
2023-05-12T18:50:07.888Z,19.51
2023-05-12T18:52:35.724Z,19.41
2023-05-12T18:55:03.000Z,19.31
2023-05-12T18:57:30.345Z,19.23
2023-05-12T18:59:57.580Z,19.15
2023-05-12T19:02:24.972Z,19.09
2023-05-12T19:04:52.520Z,19.02
2023-05-12T19:07:19.754Z,18.95
2023-05-12T19:09:47.059Z,18.87
2023-05-12T19:12:14.374Z,18.80
2023-05-12T19:14:43.017Z,18.76
2023-05-12T19:17:10.803Z,18.69
2023-05-12T19:19:38.312Z,18.64
2023-05-12T19:22:05.516Z,18.59
2023-05-12T19:24:32.954Z,18.56
2023-05-12T19:27:00.239Z,18.51
2023-05-12T19:29:27.373Z,18.44
2023-05-12T19:31:54.650Z,18.40
2023-05-12T19:34:22.028Z,18.36
2023-05-12T19:36:49.221Z,18.32
2023-05-12T19:39:25.588Z,18.29
2023-05-12T19:41:52.872Z,18.27
2023-05-12T19:44:20.113Z,18.22
2023-05-12T19:46:47.310Z,18.20
2023-05-12T19:49:15.021Z,18.17
2023-05-12T19:51:42.433Z,18.10
2023-05-12T19:54:10.337Z,18.07
2023-05-12T19:56:37.486Z,17.99
2023-05-12T20:01:51.299Z,17.89
2023-05-12T20:04:18.455Z,17.83
2023-05-12T20:06:45.668Z,17.79
2023-05-12T20:09:13.988Z,17.78
2023-05-12T20:11:41.277Z,17.74
2023-05-12T20:14:08.465Z,17.74
2023-05-12T20:16:36.251Z,17.71
2023-05-12T20:19:03.608Z,17.66
2023-05-12T20:21:33.454Z,17.63
2023-05-12T20:24:00.766Z,17.59
2023-05-12T20:26:28.720Z,17.58
2023-05-12T20:29:16.244Z,17.52
2023-05-12T20:31:43.501Z,17.48
2023-05-12T20:34:10.829Z,17.42
2023-05-12T20:36:38.017Z,17.39
2023-05-12T20:39:05.224Z,17.34
2023-05-12T20:41:32.613Z,17.31
2023-05-12T20:43:59.888Z,17.28
2023-05-12T20:46:28.180Z,17.25
2023-05-12T20:48:55.498Z,17.22
2023-05-12T20:51:22.876Z,17.17
2023-05-12T20:53:50.367Z,17.14
2023-05-12T20:56:17.773Z,17.09
2023-05-12T20:58:45.457Z,17.08
2023-05-12T21:01:12.708Z,17.03
2023-05-12T21:03:39.942Z,16.99
2023-05-12T21:06:07.384Z,16.98
2023-05-12T21:08:44.272Z,16.93
2023-05-12T21:11:18.687Z,16.94
2023-05-12T21:13:47.200Z,16.91
2023-05-12T21:16:15.297Z,16.87
2023-05-12T21:18:42.757Z,16.85
2023-05-12T21:21:10.070Z,16.82
2023-05-12T21:23:37.682Z,16.77
2023-05-12T21:26:05.164Z,16.74
2023-05-12T21:28:32.549Z,16.69
2023-05-12T21:31:01.002Z,16.65
2023-05-12T21:33:28.376Z,16.60
2023-05-12T21:35:55.793Z,16.56
2023-05-12T21:38:23.222Z,16.52
2023-05-12T21:40:56.374Z,16.48
2023-05-12T21:43:23.837Z,16.43
2023-05-12T21:45:51.146Z,16.41
2023-05-12T21:48:21.474Z,16.37
2023-05-12T21:51:00.187Z,16.33
2023-05-12T21:53:27.531Z,16.29
2023-05-12T21:55:59.013Z,16.25
2023-05-12T21:58:26.315Z,16.23
2023-05-12T22:00:53.659Z,16.20
2023-05-12T22:03:21.915Z,16.15
2023-05-12T22:05:49.988Z,16.13
2023-05-12T22:08:17.237Z,16.08
2023-05-12T22:10:44.529Z,16.04
2023-05-12T22:13:11.696Z,16.02
2023-05-12T22:15:38.909Z,16.00
2023-05-12T22:18:55.436Z,16.00
2023-05-12T22:22:13.661Z,15.97
2023-05-12T22:25:06.075Z,15.95
2023-05-12T22:28:23.248Z,15.88
2023-05-12T22:30:50.417Z,15.81
2023-05-12T22:33:17.497Z,15.77
2023-05-12T22:35:44.816Z,15.74
2023-05-12T22:38:12.022Z,15.69
2023-05-12T22:40:39.176Z,15.64
2023-05-12T22:43:06.796Z,15.63
2023-05-12T22:45:34.052Z,15.60
2023-05-12T22:48:01.369Z,15.58
2023-05-12T22:50:28.589Z,15.57
2023-05-12T22:52:57.365Z,15.54
2023-05-12T22:55:30.687Z,15.50
2023-05-12T22:57:59.642Z,15.45
2023-05-12T23:00:27.224Z,15.41
2023-05-12T23:02:54.556Z,15.37
2023-05-12T23:05:21.886Z,15.35
2023-05-12T23:07:49.067Z,15.32
2023-05-12T23:10:16.320Z,15.30
2023-05-12T23:12:43.484Z,15.26
2023-05-12T23:15:11.052Z,15.22
2023-05-12T23:17:38.207Z,15.17
2023-05-12T23:20:06.626Z,15.15
2023-05-12T23:22:34.123Z,15.12
2023-05-12T23:25:01.386Z,15.08
2023-05-12T23:27:28.546Z,15.04
2023-05-12T23:29:55.787Z,15.02
2023-05-12T23:32:23.084Z,14.98
2023-05-12T23:34:50.368Z,14.97
2023-05-12T23:37:19.276Z,14.93
2023-05-12T23:39:46.452Z,14.89
2023-05-12T23:42:13.699Z,14.85
2023-05-12T23:44:40.990Z,14.82
2023-05-12T23:47:08.251Z,14.78
2023-05-12T23:49:35.378Z,14.74
2023-05-12T23:52:02.577Z,14.71
2023-05-12T23:54:29.784Z,14.68
2023-05-12T23:56:56.917Z,14.63
2023-05-12T23:59:24.244Z,14.60
